SLCB/CBB METAR and TAF weather

Enter ICAO airport designator
Station Type Date Time Source
SLCB METAR 2020/07/12 00:00 UTC NOAA

SLCB 120000Z 13005KT 9999 NSC 15/M05 Q1021


Station Type Date Time Source
SLCB Decoded METAR 2020/07/12 00:00 UTC NOAA

Cochabamba, Bolivia (SLCB) 17-25S 066-11W 2570M
Jul 11, 2020 - 08:00 PM EDT / 2020.07.12 0000 UTC
Wind: from the SE (130 degrees) at 6 MPH (5 KT):0
Visibility: greater than 7 mile(s):0
Temperature: 59 F (15 C)
Dew Point: 23 F (-5 C)
Relative Humidity: 24%
Pressure (altimeter): 30.15 in. Hg (1021 hPa)
ob: SLCB 120000Z 13005KT 9999 NSC 15/M05 Q1021
cycle: 0

Station Type Date Time Source
SLCB TAF 2020/07/11 18:24 UTC NOAA

TAF SLCB 111600Z 1118/1218 26010KT 9999 NSC TX26/1119Z TN01/1211Z
BECMG 1200/1202 00000KT

Example: see airport list